Time;durP1;ratioP1;P1;durP2;ratioP2;P2;SDS_P1;SDS_P2;PMS_P1;PMS_P2;Temp;Humidity;BMP_temperature;BMP_pressure;BME280_temperature;BME280_humidity;BME280_pressure;Samples;Min_cycle;Max_cycle;Signal;HPM_P1;HPM_P2
2021/04/12 09:14:23;;;;;;;14.50;9.70;;;;;;;36.51;12.57;94228.81;5044384;27;20523;-84
2021/04/12 09:17:05;;;;;;;19.15;9.02;;;;;;;36.36;12.66;94223.78;5027689;28;20505;-83
2021/04/12 09:19:59;;;;;;;21.15;9.13;;;;;;;35.47;13.06;94198.25;5025088;28;20512;-83
2021/04/12 09:23:02;;;;;;;15.37;9.53;;;;;;;36.55;12.62;94221.22;5030644;28;20076;-83
2021/04/12 09:25:46;;;;;;;16.63;8.60;;;;;;;37.43;12.33;94211.84;5045611;28;20052;-84
2021/04/12 09:29:01;;;;;;;12.48;9.30;;;;;;;37.32;12.08;94212.22;5047606;28;20064;-84
2021/04/12 09:31:51;;;;;;;15.88;9.73;;;;;;;36.13;13.02;94207.63;5038435;28;20044;-84
2021/04/12 09:34:37;;;;;;;13.20;10.30;;;;;;;35.66;13.35;94204.78;5047374;28;20229;-83
2021/04/12 09:37:06;;;;;;;20.83;9.48;;;;;;;35.10;13.24;94209.88;5040009;28;20478;-83
2021/04/12 09:40:08;;;;;;;19.52;9.88;;;;;;;34.58;13.52;94202.66;5047279;28;20056;-82
2021/04/12 09:43:03;;;;;;;21.38;10.23;;;;;;;34.44;14.29;94197.53;5047298;28;20033;-82
2021/04/12 09:45:47;;;;;;;;;;;;;;;34.87;14.08;94191.69;5079806;28;20075;-82
2021/04/12 09:48:37;;;;;;;15.13;9.57;;;;;;;34.05;13.95;94186.75;5030297;28;19921;-82
2021/04/12 09:51:18;;;;;;;13.75;9.70;;;;;;;34.44;14.80;94180.31;5026806;28;20041;-80
2021/04/12 09:54:02;;;;;;;17.98;9.90;;;;;;;34.14;14.45;94181.41;5038220;28;20044;-82
2021/04/12 09:56:33;;;;;;;15.35;9.18;;;;;;;33.46;14.94;94182.22;5044118;28;20048;-82
2021/04/12 09:59:25;;;;;;;16.52;8.95;;;;;;;31.98;16.12;94185.75;5047935;28;20397;-84
2021/04/12 10:02:32;;;;;;;12.38;9.82;;;;;;;31.44;17.27;94182.25;5046303;28;20044;-80
2021/04/12 10:05:37;;;;;;;17.70;10.00;;;;;;;30.59;17.56;94180.56;5055576;28;20354;-83
2021/04/12 10:08:08;;;;;;;;;;;;;;;30.30;17.24;94180.06;5046059;28;20076;-82
2021/04/12 10:10:42;;;;;;;17.73;12.05;;;;;;;30.02;18.83;94172.91;5045547;28;20006;-80
2021/04/12 10:13:25;;;;;;;23.98;12.02;;;;;;;29.29;18.28;94172.97;5047569;28;20041;-81
2021/04/12 10:15:58;;;;;;;22.60;11.77;;;;;;;28.84;18.30;94163.88;5050636;28;20037;-84
2021/04/12 10:19:01;;;;;;;19.23;10.75;;;;;;;28.60;19.26;94170.16;5045722;28;20496;-85
2021/04/12 10:21:40;;;;;;;16.67;10.80;;;;;;;28.58;19.62;94132.50;5047612;28;20579;-85
2021/04/12 10:24:23;;;;;;;20.30;11.10;;;;;;;28.22;19.72;94164.44;5038743;28;20042;-84
2021/04/12 10:27:13;;;;;;;21.90;11.70;;;;;;;28.32;20.19;94158.22;5030510;28;20102;-83
2021/04/12 10:30:03;;;;;;;18.80;10.95;;;;;;;27.84;19.95;94160.56;5022290;28;20045;-83
2021/04/12 10:32:38;;;;;;;26.48;11.18;;;;;;;27.54;20.79;94135.75;5024139;28;20881;-85
2021/04/12 10:35:19;;;;;;;17.73;11.30;;;;;;;27.73;20.41;94140.78;5024221;28;20065;-84
2021/04/12 10:38:09;;;;;;;16.77;12.38;;;;;;;27.36;20.58;94156.66;5043662;28;20508;-83
2021/04/12 10:41:00;;;;;;;13.98;11.02;;;;;;;27.25;21.50;94155.84;5029300;28;20153;-84
2021/04/12 10:43:33;;;;;;;23.33;11.63;;;;;;;27.19;20.62;94113.97;5018135;28;20037;-86
2021/04/12 10:46:19;;;;;;;20.33;11.68;;;;;;;27.28;20.66;94155.06;5004483;28;20073;-86
2021/04/12 10:48:57;;;;;;;22.13;10.88;;;;;;;27.31;21.82;94148.88;4993020;28;20593;-86
2021/04/12 10:51:45;;;;;;;28.67;11.82;;;;;;;26.72;20.67;94151.03;5031564;28;20064;-86
2021/04/12 10:54:35;;;;;;;20.58;12.82;;;;;;;26.19;21.44;94140.66;5031238;28;20090;-86
2021/04/12 10:57:07;;;;;;;22.77;12.32;;;;;;;25.66;21.79;94148.44;5049611;28;20064;-85
2021/04/12 10:59:48;;;;;;;17.70;12.38;;;;;;;25.51;22.29;94129.75;5031261;28;20095;-85
2021/04/12 11:02:43;;;;;;;25.05;13.00;;;;;;;25.67;22.52;94130.25;5011349;28;20029;-85
2021/04/12 11:05:13;;;;;;;17.20;12.05;;;;;;;25.76;22.58;94119.88;5014032;28;20532;-86
2021/04/12 11:07:45;;;;;;;25.23;13.48;;;;;;;25.60;23.34;94131.00;5012243;28;20140;-84
2021/04/12 11:10:50;;;;;;;23.88;12.02;;;;;;;25.68;23.19;94129.91;5031516;28;20025;-85
2021/04/12 11:13:29;;;;;;;19.30;11.98;;;;;;;25.70;23.34;94086.22;5035673;28;20635;-82
2021/04/12 11:16:10;;;;;;;22.77;11.50;;;;;;;25.70;24.35;94099.75;5047732;28;20035;-85
2021/04/12 11:18:59;;;;;;;22.52;11.68;;;;;;;25.63;22.32;94084.25;5022664;28;20064;-85
2021/04/12 11:21:35;;;;;;;20.95;11.68;;;;;;;25.53;22.57;94103.84;5033801;28;20045;-85
2021/04/12 11:24:28;;;;;;;22.15;11.10;;;;;;;25.26;22.66;94099.78;5004071;28;20111;-82
2021/04/12 11:27:02;;;;;;;18.15;10.43;;;;;;;25.17;23.11;94100.06;5012012;28;20437;-83
2021/04/12 11:29:31;;;;;;;27.50;10.38;;;;;;;24.94;23.21;94067.81;5029904;28;20359;-85
2021/04/12 11:32:09;;;;;;;30.52;10.73;;;;;;;24.83;23.33;94071.50;4995461;28;20061;-85
2021/04/12 11:34:52;;;;;;;19.70;10.30;;;;;;;24.88;23.52;94042.25;5020256;28;20053;-85
2021/04/12 11:37:36;;;;;;;23.73;10.80;;;;;;;25.28;24.34;94076.59;5027948;28;20035;-85
2021/04/12 11:40:13;;;;;;;20.23;9.70;;;;;;;25.52;24.41;94064.41;5043352;28;20896;-86
2021/04/12 11:42:48;;;;;;;17.65;9.18;;;;;;;25.60;25.58;94059.88;5032961;28;20309;-86
2021/04/12 11:45:30;;;;;;;;;;;;;;;25.79;24.47;94078.53;5025327;28;20043;-86
2021/04/12 11:48:48;;;;;;;15.98;8.07;;;;;;;25.63;23.30;94062.59;5019781;28;19924;-86
2021/04/12 11:51:32;;;;;;;16.48;8.07;;;;;;;25.48;23.99;94033.84;5011701;28;20045;-86
2021/04/12 11:54:08;;;;;;;18.48;7.47;;;;;;;25.76;23.73;94052.22;4989481;28;20098;-86
2021/04/12 11:56:53;;;;;;;16.73;7.88;;;;;;;25.62;23.57;94039.38;5029166;28;20102;-86
2021/04/12 11:59:37;;;;;;;15.93;6.40;;;;;;;25.64;22.70;94066.06;5023292;28;20045;-86
2021/04/12 12:02:24;;;;;;;13.05;6.90;;;;;;;25.44;23.42;94060.09;5017380;28;20095;-83
2021/04/12 12:05:04;;;;;;;15.05;6.18;;;;;;;25.39;23.20;94057.75;5006136;28;20128;-82
2021/04/12 12:07:41;;;;;;;15.90;6.07;;;;;;;25.36;23.22;94044.97;5013391;28;20161;-81
2021/04/12 12:10:19;;;;;;;11.50;4.63;;;;;;;25.26;23.68;94057.28;5008648;28;20104;-82
2021/04/12 12:13:02;;;;;;;22.75;5.85;;;;;;;25.40;23.66;94051.19;5045240;28;20076;-82
2021/04/12 12:15:38;;;;;;;16.40;5.68;;;;;;;25.21;23.28;94017.06;5030210;28;20132;-82
2021/04/12 12:18:27;;;;;;;12.15;5.82;;;;;;;25.25;23.23;94034.06;5020658;28;20034;-82
2021/04/12 12:21:07;;;;;;;9.57;5.45;;;;;;;25.14;23.68;94022.41;5006200;28;20069;-80
2021/04/12 12:24:11;;;;;;;24.35;6.60;;;;;;;25.31;23.38;94040.69;5026120;28;20048;-82
2021/04/12 12:27:01;;;;;;;13.43;4.60;;;;;;;25.45;23.26;94027.28;5030055;28;20370;-80
2021/04/12 12:29:40;;;;;;;12.98;4.22;;;;;;;25.44;23.02;94025.72;5030293;28;20124;-80
2021/04/12 12:32:15;;;;;;;14.35;3.90;;;;;;;25.21;23.55;94025.16;5033433;28;20029;-82
2021/04/12 12:34:46;;;;;;;;;;;;;;;25.13;23.08;94020.84;5026371;28;20098;-81
2021/04/12 12:37:49;;;;;;;15.48;4.57;;;;;;;25.13;23.64;94018.13;5010873;28;19914;-81
2021/04/12 12:40:25;;;;;;;15.73;4.50;;;;;;;25.18;23.51;94017.78;5009036;28;20109;-81
2021/04/12 12:43:00;;;;;;;12.30;4.45;;;;;;;25.16;23.59;94003.09;5015222;28;20105;-80
2021/04/12 12:45:34;;;;;;;19.67;4.75;;;;;;;25.39;23.12;94009.06;5025583;28;20052;-81
2021/04/12 12:48:11;;;;;;;8.55;4.13;;;;;;;25.62;23.02;94003.41;5013808;28;20048;-82
2021/04/12 12:50:59;;;;;;;6.93;3.85;;;;;;;25.71;22.92;94001.13;5003169;28;20045;-82
2021/04/12 12:53:30;;;;;;;14.05;5.13;;;;;;;25.78;23.14;93995.78;5006443;28;20065;-81
2021/04/12 12:56:24;;;;;;;11.57;5.05;;;;;;;25.78;23.13;93988.44;5015211;28;20043;-81
2021/04/12 12:58:58;;;;;;;15.65;4.63;;;;;;;25.60;22.40;94000.31;5032394;28;20053;-81
2021/04/12 13:01:42;;;;;;;18.00;4.55;;;;;;;25.47;22.68;93991.69;5005265;28;20054;-81
2021/04/12 13:04:15;;;;;;;9.13;4.17;;;;;;;25.50;23.64;93982.84;5007496;28;20482;-82
2021/04/12 13:06:44;;;;;;;15.05;4.70;;;;;;;25.05;22.83;93975.97;5026995;28;20045;-82
2021/04/12 13:09:34;;;;;;;17.65;3.80;;;;;;;25.29;22.79;93971.88;5008384;28;20516;-81
2021/04/12 13:12:14;;;;;;;9.90;3.92;;;;;;;25.63;23.10;93977.91;5014869;28;20059;-81
2021/04/12 13:14:49;;;;;;;10.18;4.95;;;;;;;25.80;23.11;93969.13;5021778;28;20048;-80
2021/04/12 13:17:37;;;;;;;8.80;3.95;;;;;;;25.87;22.82;93966.41;5042036;28;20140;-81
2021/04/12 13:20:19;;;;;;;7.38;3.38;;;;;;;26.08;22.62;93969.22;5026596;28;20037;-81
2021/04/12 13:22:50;;;;;;;10.48;4.15;;;;;;;25.78;22.46;93966.00;5027374;28;20051;-81
2021/04/12 13:25:24;;;;;;;15.60;4.32;;;;;;;25.58;22.03;93968.22;5027998;28;20056;-80
2021/04/12 13:28:39;;;;;;;9.57;4.53;;;;;;;25.92;21.72;93960.63;5038915;28;20568;-81
2021/04/12 13:31:08;;;;;;;11.48;3.40;;;;;;;25.63;21.54;93956.25;5028499;28;20696;-82
2021/04/12 13:33:39;;;;;;;5.55;2.80;;;;;;;25.54;21.64;93940.34;5027896;28;20048;-82
2021/04/12 13:36:11;;;;;;;10.48;3.13;;;;;;;25.55;21.81;93941.94;5021950;28;20162;-82
2021/04/12 13:38:39;;;;;;;5.95;3.10;;;;;;;25.70;22.35;93945.47;5021398;28;20391;-82
2021/04/12 13:41:21;;;;;;;9.55;3.33;;;;;;;25.65;22.12;93940.44;5040803;28;20060;-82
2021/04/12 13:43:53;;;;;;;13.27;3.30;;;;;;;25.52;22.30;93931.03;5020407;28;20576;-82
2021/04/12 13:46:25;;;;;;;12.65;3.53;;;;;;;25.31;21.78;93934.41;5022370;28;20555;-80
2021/04/12 13:49:17;;;;;;;5.90;3.45;;;;;;;25.25;22.42;93942.13;5028046;28;20556;-81
2021/04/12 13:51:44;;;;;;;13.38;3.20;;;;;;;25.25;22.07;93928.59;5024518;28;20053;-81
2021/04/12 13:54:27;;;;;;;6.78;2.35;;;;;;;24.97;21.86;93923.00;5025868;28;20040;-82
2021/04/12 13:57:00;;;;;;;9.13;3.20;;;;;;;25.04;22.32;93917.63;5023297;28;20045;-82
2021/04/12 13:59:42;;;;;;;12.75;3.03;;;;;;;25.24;22.10;93920.84;5034585;28;20033;-82
2021/04/12 14:02:21;;;;;;;7.03;3.00;;;;;;;25.40;23.03;93932.94;5032129;28;20041;-82
2021/04/12 14:04:52;;;;;;;5.82;2.65;;;;;;;25.20;22.01;93911.94;5034752;28;20359;-81
2021/04/12 14:07:26;;;;;;;12.65;3.80;;;;;;;25.18;22.17;93909.59;5031641;28;20379;-82
2021/04/12 14:09:54;;;;;;;10.45;3.30;;;;;;;25.15;22.07;93923.88;5035494;28;20066;-81
2021/04/12 14:12:23;;;;;;;13.18;3.65;;;;;;;25.00;22.53;93909.50;5029941;28;20061;-80
2021/04/12 14:14:53;;;;;;;7.97;3.58;;;;;;;25.04;23.11;93909.53;5029007;28;20045;-80
2021/04/12 14:17:27;;;;;;;13.13;3.90;;;;;;;25.02;22.72;93909.13;5028896;28;20608;-82
2021/04/12 14:20:10;;;;;;;13.70;3.38;;;;;;;24.97;23.08;93906.78;5028382;28;20053;-81
2021/04/12 14:22:58;;;;;;;9.10;3.47;;;;;;;25.03;22.66;93908.75;5028027;28;20049;-81
2021/04/12 14:25:38;;;;;;;7.60;3.05;;;;;;;24.94;22.80;93894.00;5029446;28;20515;-83
2021/04/12 14:28:17;;;;;;;8.63;2.60;;;;;;;25.12;22.55;93888.72;5030233;28;20057;-81
2021/04/12 14:31:03;;;;;;;10.35;3.38;;;;;;;24.97;22.29;93860.81;5028514;28;20428;-83
2021/04/12 14:33:32;;;;;;;8.68;2.25;;;;;;;25.18;23.10;93900.72;5028912;28;20041;-82
2021/04/12 14:36:22;;;;;;;9.70;3.15;;;;;;;25.07;22.00;93891.78;5013683;28;20151;-83
2021/04/12 14:38:54;;;;;;;8.23;2.70;;;;;;;24.87;22.25;93888.56;5023267;28;20037;-82
2021/04/12 14:41:32;;;;;;;10.10;2.90;;;;;;;24.81;22.37;93885.41;5027876;28;20521;-83
2021/04/12 14:44:13;;;;;;;8.90;2.80;;;;;;;24.46;22.46;93885.91;5021172;28;20046;-83
2021/04/12 14:46:51;;;;;;;10.48;3.13;;;;;;;24.32;22.88;93893.88;5008964;28;20410;-83
2021/04/12 14:49:25;;;;;;;8.95;2.53;;;;;;;24.24;22.81;93892.25;5009713;28;20099;-82
2021/04/12 14:51:57;;;;;;;;;;;;;;;24.34;22.56;93893.50;5031589;28;20025;-81
2021/04/12 14:54:38;;;;;;;10.35;2.78;;;;;;;24.49;23.23;93887.84;5010081;28;19920;-83
2021/04/12 14:57:06;;;;;;;10.68;3.00;;;;;;;24.64;23.27;93902.25;5006907;28;20083;-83
2021/04/12 14:59:41;;;;;;;7.18;3.45;;;;;;;24.60;22.62;93891.41;5018801;28;20041;-83
2021/04/12 15:02:30;;;;;;;8.95;2.75;;;;;;;24.63;22.59;93894.53;5021189;28;20045;-82
2021/04/12 15:05:03;;;;;;;9.48;2.70;;;;;;;24.61;22.69;93886.78;5012642;28;20040;-83
2021/04/12 15:07:48;;;;;;;9.10;2.70;;;;;;;24.54;22.37;93886.72;5026166;28;20033;-85
2021/04/12 15:10:29;;;;;;;8.60;2.70;;;;;;;24.64;22.31;93896.06;5008773;28;20485;-84
2021/04/12 15:13:02;;;;;;;9.63;3.58;;;;;;;24.66;22.37;93888.38;5042117;28;20061;-82
2021/04/12 15:15:53;;;;;;;7.18;3.00;;;;;;;24.57;22.42;93881.38;4992309;28;20124;-83
2021/04/12 15:18:33;;;;;;;10.30;2.47;;;;;;;24.33;22.57;93876.53;5021314;28;20048;-82
2021/04/12 15:21:18;;;;;;;10.80;3.10;;;;;;;24.24;23.16;93870.66;5039577;28;20044;-82
2021/04/12 15:23:55;;;;;;;6.28;3.28;;;;;;;24.13;22.65;93872.47;5016179;28;20057;-82
2021/04/12 15:26:24;;;;;;;12.90;4.40;;;;;;;24.12;22.48;93884.41;5010572;28;20777;-82
2021/04/12 15:28:50;;;;;;;9.32;3.92;;;;;;;23.83;23.88;93874.47;5015305;28;20053;-82
2021/04/12 15:31:25;;;;;;;6.95;3.60;;;;;;;23.65;24.55;93885.81;5026106;28;21196;-82
2021/04/12 15:33:57;;;;;;;7.32;3.67;;;;;;;23.34;25.31;93880.81;5029218;28;20049;-82
2021/04/12 15:36:47;;;;;;;9.73;3.90;;;;;;;22.94;26.01;93886.03;5034064;28;20286;-83
2021/04/12 15:39:24;;;;;;;11.55;4.03;;;;;;;22.82;26.06;93887.81;5043839;28;20042;-83
2021/04/12 15:41:52;;;;;;;9.70;3.90;;;;;;;22.60;26.18;93875.13;5044306;28;20049;-83
2021/04/12 15:44:17;;;;;;;10.77;4.22;;;;;;;22.51;26.83;93877.31;5025950;28;20073;-82
2021/04/12 15:46:46;;;;;;;13.70;5.55;;;;;;;22.21;27.37;93874.50;5047899;28;20136;-82
2021/04/12 15:49:13;;;;;;;10.68;5.38;;;;;;;22.19;27.10;93870.59;5031300;28;20034;-83
2021/04/12 15:51:52;;;;;;;15.45;5.15;;;;;;;22.10;27.41;93860.09;5035155;28;20071;-82
2021/04/12 15:54:25;;;;;;;11.43;4.72;;;;;;;22.37;27.10;93883.25;5027980;28;20040;-81
2021/04/12 15:57:13;;;;;;;9.05;4.55;;;;;;;22.22;27.37;93880.69;5027476;28;20068;-82
2021/04/12 16:00:06;;;;;;;8.38;4.18;;;;;;;22.40;27.59;93876.34;5026762;28;20036;-82
2021/04/12 16:02:43;;;;;;;14.27;4.88;;;;;;;22.18;27.89;93866.38;5040748;28;20041;-81
2021/04/12 16:05:19;;;;;;;16.45;5.53;;;;;;;22.23;27.69;93874.16;5023516;28;20073;-82
2021/04/12 16:08:15;;;;;;;15.88;5.30;;;;;;;22.11;28.22;93874.31;5027774;28;20122;-82
2021/04/12 16:10:49;;;;;;;12.05;5.25;;;;;;;22.08;27.87;93875.06;5023325;28;20489;-82
2021/04/12 16:13:45;;;;;;;12.02;4.55;;;;;;;21.89;28.17;93865.84;5000724;28;20049;-80
2021/04/12 16:16:26;;;;;;;18.60;4.60;;;;;;;21.82;28.15;93868.41;5041452;28;20060;-83
2021/04/12 16:19:01;;;;;;;9.52;3.70;;;;;;;21.70;28.46;93867.81;5017917;28;20074;-83
2021/04/12 16:21:27;;;;;;;12.70;5.18;;;;;;;21.56;28.29;93876.38;5013792;28;20041;-83
2021/04/12 16:23:52;;;;;;;16.08;4.13;;;;;;;21.41;28.62;93869.94;5027278;28;20607;-83
2021/04/12 16:26:26;;;;;;;11.65;4.82;;;;;;;21.26;28.84;93864.66;5034737;28;20066;-83
2021/04/12 16:29:04;;;;;;;13.18;4.15;;;;;;;21.08;29.34;93856.19;5022501;28;20048;-82
2021/04/12 16:31:37;;;;;;;13.20;4.60;;;;;;;20.94;29.22;93851.28;5025874;28;20033;-82
2021/04/12 16:34:13;;;;;;;15.10;3.90;;;;;;;20.89;29.65;93858.84;5026054;28;20099;-82
2021/04/12 16:36:56;;;;;;;12.38;3.75;;;;;;;20.77;29.36;93846.31;5038772;28;20047;-81
2021/04/12 16:39:35;;;;;;;14.35;5.03;;;;;;;20.80;29.54;93860.97;5030325;28;20041;-80
2021/04/12 16:42:20;;;;;;;32.13;12.32;;;;;;;20.78;29.56;93872.03;5041109;28;20148;-81
2021/04/12 16:45:07;;;;;;;35.00;14.80;;;;;;;20.55;30.24;93847.75;5026141;28;20064;-86
2021/04/12 16:47:42;;;;;;;26.45;11.85;;;;;;;20.39;30.59;93832.78;5030738;28;20195;-84
2021/04/12 16:50:43;;;;;;;21.95;9.93;;;;;;;20.44;30.72;93865.53;5029186;28;20048;-82
2021/04/12 16:53:17;;;;;;;14.18;4.70;;;;;;;20.18;31.15;93860.66;5041203;28;20045;-82
2021/04/12 16:55:53;;;;;;;15.75;4.93;;;;;;;20.01;31.89;93868.28;5030518;28;20033;-81
2021/04/12 16:58:24;;;;;;;9.15;4.53;;;;;;;19.86;31.75;93873.28;5026522;28;20430;-82
2021/04/12 17:00:56;;;;;;;13.13;3.78;;;;;;;19.67;31.81;93875.06;5030217;28;20037;-83
2021/04/12 17:03:30;;;;;;;9.20;4.45;;;;;;;19.48;32.44;93866.88;5041712;28;20529;-84
2021/04/12 17:06:25;;;;;;;11.25;4.15;;;;;;;19.37;32.63;93877.28;5030462;28;20042;-81
2021/04/12 17:09:01;;;;;;;7.60;3.65;;;;;;;19.28;32.72;93885.47;5027749;28;20049;-81
2021/04/12 17:11:37;;;;;;;10.25;3.83;;;;;;;19.11;32.91;93869.66;5028700;28;20127;-81
2021/04/12 17:14:24;;;;;;;8.88;4.32;;;;;;;19.06;33.44;93877.94;5021132;28;20092;-80
2021/04/12 17:17:13;;;;;;;16.52;5.07;;;;;;;18.82;33.30;93857.34;5009217;28;20048;-82
2021/04/12 17:19:41;;;;;;;20.55;5.47;;;;;;;18.94;33.49;93875.31;5011912;28;20045;-81
2021/04/12 17:22:13;;;;;;;16.25;5.68;;;;;;;19.02;33.75;93882.41;5009239;28;20116;-81
2021/04/12 17:24:42;;;;;;;16.33;6.80;;;;;;;18.94;33.18;93876.09;5005763;28;20133;-81
2021/04/12 17:27:26;;;;;;;12.45;5.22;;;;;;;18.90;34.00;93882.47;4996056;28;20087;-80
2021/04/12 17:30:14;;;;;;;14.47;6.17;;;;;;;18.86;33.97;93885.00;5022874;28;20045;-81
2021/04/12 17:32:47;;;;;;;17.15;8.40;;;;;;;18.79;33.99;93887.50;4996771;28;21628;-81
2021/04/12 17:35:13;;;;;;;8.38;4.22;;;;;;;18.66;34.61;93885.16;5001053;28;20045;-81
2021/04/12 17:37:46;;;;;;;11.32;3.38;;;;;;;18.39;35.11;93875.88;5014979;28;20030;-81
2021/04/12 17:40:26;;;;;;;10.05;4.78;;;;;;;18.29;36.05;93889.72;5017205;28;20080;-81
2021/04/12 17:43:03;;;;;;;12.60;4.82;;;;;;;17.94;36.60;93878.63;5017481;28;20056;-80
2021/04/12 17:45:33;;;;;;;14.40;4.10;;;;;;;17.69;37.10;93870.56;5012630;28;20045;-80
2021/04/12 17:48:14;;;;;;;9.55;4.35;;;;;;;17.61;37.74;93900.06;5014128;28;21005;-80
2021/04/12 17:50:40;;;;;;;11.60;6.78;;;;;;;17.36;38.04;93869.00;5011592;28;20402;-83
2021/04/12 17:53:19;;;;;;;11.55;4.30;;;;;;;17.23;38.60;93878.84;5000437;28;20061;-84
2021/04/12 17:55:49;;;;;;;11.32;4.78;;;;;;;17.30;38.44;93900.47;5012965;28;20037;-82
2021/04/12 17:58:27;;;;;;;12.73;4.55;;;;;;;17.25;39.71;93906.78;5031413;28;20515;-82
2021/04/12 18:01:18;;;;;;;10.25;4.38;;;;;;;17.14;39.61;93902.97;5015824;28;20059;-82
2021/04/12 18:04:06;;;;;;;23.33;11.95;;;;;;;17.08;39.40;93916.84;5016071;28;20041;-82
2021/04/12 18:06:41;;;;;;;19.15;9.38;;;;;;;17.02;40.02;93912.78;5000530;28;20168;-83
2021/04/12 18:09:19;;;;;;;21.60;11.18;;;;;;;16.95;40.54;93909.88;5031543;28;20129;-83
2021/04/12 18:12:06;;;;;;;24.83;12.50;;;;;;;16.79;40.89;93910.44;5014752;28;20041;-82
2021/04/12 18:14:40;;;;;;;14.27;7.90;;;;;;;16.72;40.73;93922.72;5020883;28;20037;-84
2021/04/12 18:17:36;;;;;;;15.98;5.95;;;;;;;16.62;40.58;93920.41;4987128;28;20126;-82
2021/04/12 18:20:08;;;;;;;12.00;4.75;;;;;;;16.65;40.55;93925.91;5014951;28;20044;-82
2021/04/12 18:22:36;;;;;;;12.00;5.15;;;;;;;16.54;40.68;93930.03;5010112;28;20034;-82
2021/04/12 18:25:05;;;;;;;13.75;5.47;;;;;;;16.43;40.87;93926.94;5016281;28;20211;-81
2021/04/12 18:27:43;;;;;;;15.05;4.00;;;;;;;16.39;41.24;93933.22;5017218;28;20421;-82
2021/04/12 18:30:16;;;;;;;13.70;7.78;;;;;;;16.22;41.09;93930.66;5015949;28;20068;-83
2021/04/12 18:32:55;;;;;;;18.25;6.45;;;;;;;16.25;40.99;93927.34;5013993;28;20052;-82
2021/04/12 18:35:29;;;;;;;12.68;5.80;;;;;;;16.22;40.94;93936.75;4992664;28;20049;-82
2021/04/12 18:38:08;;;;;;;10.70;4.18;;;;;;;16.18;42.22;93935.81;5010861;28;20425;-82
2021/04/12 18:40:33;;;;;;;14.10;4.97;;;;;;;16.17;41.70;93938.81;5037383;28;20033;-83
2021/04/12 18:43:15;;;;;;;14.07;5.28;;;;;;;16.14;42.14;93940.22;5011278;28;20059;-83
2021/04/12 18:45:53;;;;;;;14.57;4.95;;;;;;;16.13;42.03;93937.88;5033411;28;20051;-82
2021/04/12 18:48:24;;;;;;;15.40;5.10;;;;;;;16.06;42.28;93933.06;5031241;28;20052;-83
2021/04/12 18:51:23;;;;;;;14.02;4.53;;;;;;;15.96;42.45;93941.38;5017472;28;20588;-82
2021/04/12 18:54:33;;;;;;;14.52;4.05;;;;;;;15.82;42.73;93949.59;5027099;28;20102;-82
2021/04/12 18:57:10;;;;;;;13.35;5.25;;;;;;;15.61;43.44;93943.34;5030821;28;20493;-81
2021/04/12 19:00:05;;;;;;;14.75;5.15;;;;;;;15.59;43.06;93940.19;5038365;28;20049;-82
2021/04/12 19:03:03;;;;;;;15.45;6.15;;;;;;;15.53;43.46;93936.16;5015847;28;20124;-82
2021/04/12 19:05:50;;;;;;;16.27;5.10;;;;;;;15.34;43.56;93927.69;5023338;28;20522;-82
2021/04/12 19:08:39;;;;;;;17.38;5.55;;;;;;;15.43;43.34;93947.09;5032980;28;20040;-82
2021/04/12 19:11:37;;;;;;;10.35;4.80;;;;;;;15.30;43.37;93937.38;5024927;28;20125;-85
2021/04/12 19:14:13;;;;;;;14.00;4.70;;;;;;;15.25;44.04;93940.22;5019132;28;20081;-79
2021/04/12 19:16:42;;;;;;;11.93;5.88;;;;;;;15.03;43.53;93917.97;5020103;28;20554;-81
2021/04/12 19:19:13;;;;;;;9.48;4.28;;;;;;;15.16;43.60;93945.53;5034066;28;20623;-81
2021/04/12 19:21:56;;;;;;;14.93;5.47;;;;;;;15.11;43.73;93946.47;5030564;28;20079;-81
2021/04/12 19:24:31;;;;;;;11.60;3.95;;;;;;;15.07;43.69;93939.41;5028727;28;20063;-82
2021/04/12 19:27:14;;;;;;;9.70;4.23;;;;;;;15.01;43.89;93924.69;5031727;28;20160;-81
2021/04/12 19:30:22;;;;;;;8.15;5.15;;;;;;;15.04;44.61;93943.50;5017971;28;20041;-81
2021/04/12 19:33:12;;;;;;;15.00;5.28;;;;;;;14.80;44.97;93937.06;5002305;28;20096;-81
2021/04/12 19:35:52;;;;;;;18.20;9.57;;;;;;;14.87;44.76;93954.09;5012091;28;20061;-81
2021/04/12 19:38:43;;;;;;;12.20;4.38;;;;;;;14.81;45.38;93952.69;5023945;28;20048;-83
2021/04/12 19:41:18;;;;;;;11.52;4.55;;;;;;;14.86;45.72;93955.19;5026561;28;20709;-83
2021/04/12 19:44:03;;;;;;;11.52;5.78;;;;;;;14.82;45.29;93951.59;5011356;28;20124;-82
2021/04/12 19:46:43;;;;;;;15.00;6.32;;;;;;;14.68;45.55;93937.66;5016149;28;20025;-82
2021/04/12 19:49:13;;;;;;;26.48;6.35;;;;;;;14.68;45.74;93950.94;5028920;28;20025;-81
2021/04/12 19:51:46;;;;;;;15.98;6.25;;;;;;;14.61;45.83;93943.41;5013840;28;20040;-80
2021/04/12 19:54:15;;;;;;;14.43;5.75;;;;;;;14.70;45.95;93957.53;5025848;28;20064;-82
2021/04/12 19:57:12;;;;;;;13.35;5.80;;;;;;;14.64;45.63;93947.34;5035135;28;20248;-82
2021/04/12 19:59:52;;;;;;;15.40;5.35;;;;;;;14.54;46.71;93947.63;5033272;28;20040;-82
2021/04/12 20:02:27;;;;;;;16.85;6.68;;;;;;;14.52;46.76;93958.56;5036301;28;20033;-82
2021/04/12 20:04:55;;;;;;;;;;;;;;;14.49;46.65;93963.72;5032196;28;20091;-81
2021/04/12 20:07:33;;;;;;;17.30;6.65;;;;;;;14.46;46.47;93951.84;5028268;28;19958;-81
2021/04/12 20:10:15;;;;;;;15.85;6.47;;;;;;;14.29;46.58;93935.78;5032021;28;20033;-80
2021/04/12 20:12:48;;;;;;;20.95;7.32;;;;;;;14.45;46.96;93954.81;5030473;28;20345;-81
2021/04/12 20:15:28;;;;;;;23.77;8.38;;;;;;;14.47;47.06;93957.91;5027079;28;20041;-80
2021/04/12 20:17:59;;;;;;;27.05;9.68;;;;;;;14.46;47.11;93949.19;5034265;28;20523;-80
2021/04/12 20:20:39;;;;;;;18.75;8.77;;;;;;;14.49;47.00;93955.75;5028821;28;20050;-80
2021/04/12 20:23:20;;;;;;;26.08;10.73;;;;;;;14.42;47.36;93952.75;5031376;28;20043;-81
2021/04/12 20:26:15;;;;;;;20.65;10.07;;;;;;;14.45;46.93;93939.63;5029510;28;20140;-81
2021/04/12 20:28:48;;;;;;;19.93;10.03;;;;;;;14.55;46.89;93955.31;5030731;28;20037;-81
2021/04/12 20:31:38;;;;;;;25.75;10.27;;;;;;;14.48;46.83;93946.19;5030926;28;20036;-81
2021/04/12 20:34:27;;;;;;;47.85;29.65;;;;;;;14.54;46.65;93958.25;5025151;28;20037;-81
2021/04/12 20:37:12;;;;;;;20.52;11.23;;;;;;;14.58;46.64;93953.88;5042659;28;20079;-81
2021/04/12 20:39:39;;;;;;;;;;;;;;;14.52;46.57;93955.91;5031183;28;20037;-83
2021/04/12 20:42:23;;;;;;;20.75;10.32;;;;;;;14.54;46.80;93947.63;5028664;28;19916;-82
2021/04/12 20:45:00;;;;;;;19.40;9.88;;;;;;;14.53;47.46;93964.66;5030799;28;20041;-82
2021/04/12 20:47:50;;;;;;;23.25;9.48;;;;;;;14.42;47.81;93966.81;5027386;28;20048;-81
2021/04/12 20:50:26;;;;;;;24.70;10.57;;;;;;;14.27;48.34;93960.00;5030492;28;20072;-82
2021/04/12 20:52:54;;;;;;;15.80;8.45;;;;;;;14.27;48.39;93967.19;5042295;28;20040;-81
2021/04/12 20:55:32;;;;;;;22.77;9.70;;;;;;;14.13;48.68;93964.66;5032744;28;20021;-81
2021/04/12 20:58:34;;;;;;;17.30;8.93;;;;;;;14.11;48.99;93968.72;5031620;28;20026;-82
2021/04/12 21:01:04;;;;;;;17.58;8.38;;;;;;;14.05;49.04;93961.97;5030344;28;20086;-81
2021/04/12 21:03:48;;;;;;;22.25;8.88;;;;;;;14.03;49.07;93969.44;5031237;28;20456;-80
2021/04/12 21:06:24;;;;;;;21.23;8.93;;;;;;;13.92;49.55;93955.66;5040273;28;20045;-81
2021/04/12 21:09:13;;;;;;;19.83;9.85;;;;;;;13.82;49.41;93958.56;5016011;28;20595;-80
2021/04/12 21:11:39;;;;;;;15.55;8.13;;;;;;;13.69;49.53;93949.56;5022038;28;20041;-82
2021/04/12 21:14:41;;;;;;;17.10;8.82;;;;;;;13.74;49.83;93956.63;5029881;28;20029;-82
2021/04/12 21:17:11;;;;;;;16.38;8.98;;;;;;;13.67;50.37;93953.63;5032037;28;20128;-85
2021/04/12 21:19:47;;;;;;;21.38;8.93;;;;;;;13.68;49.90;93963.16;5027195;28;20413;-80
2021/04/12 21:22:32;;;;;;;22.02;10.18;;;;;;;13.68;50.12;93961.28;5030929;28;20681;-83
2021/04/12 21:25:03;;;;;;;13.75;7.68;;;;;;;13.60;50.27;93961.22;5025976;28;20124;-82
2021/04/12 21:27:34;;;;;;;17.55;9.23;;;;;;;13.57;50.49;93973.25;5031462;28;20043;-81
2021/04/12 21:30:33;;;;;;;15.90;9.73;;;;;;;13.54;50.58;93973.03;5019118;28;20593;-82
2021/04/12 21:33:15;;;;;;;22.73;10.85;;;;;;;13.53;50.64;93974.16;5019779;28;20051;-82
2021/04/12 21:35:42;;;;;;;29.15;12.85;;;;;;;13.47;50.14;93962.09;5030214;28;20052;-81
2021/04/12 21:38:24;;;;;;;18.05;10.75;;;;;;;13.44;50.66;93963.47;5020298;28;20148;-80
2021/04/12 21:41:05;;;;;;;22.95;11.65;;;;;;;13.53;50.33;93971.50;5028666;28;20055;-82